createdAt,value
2018-12-09T00:01:29.403Z,8.03
2018-12-09T00:03:57.560Z,10.80
2018-12-09T00:06:25.703Z,9.30
2018-12-09T00:08:53.866Z,12.50
2018-12-09T00:11:22.037Z,6.57
2018-12-09T00:13:50.132Z,7.17
2018-12-09T00:16:18.242Z,10.63
2018-12-09T00:18:46.339Z,7.60
2018-12-09T00:21:14.476Z,5.97
2018-12-09T00:23:42.694Z,8.77
2018-12-09T00:26:10.766Z,9.27
2018-12-09T00:28:38.991Z,9.50
2018-12-09T00:31:07.084Z,8.93
2018-12-09T00:33:35.243Z,12.87
2018-12-09T00:36:05.292Z,11.30
2018-12-09T00:38:33.500Z,8.10
2018-12-09T00:41:01.691Z,10.90
2018-12-09T00:43:29.789Z,8.20
2018-12-09T00:45:57.959Z,6.40
2018-12-09T00:48:26.298Z,6.50
2018-12-09T00:50:54.399Z,9.83
2018-12-09T00:53:22.519Z,9.30
2018-12-09T00:55:50.666Z,7.30
2018-12-09T00:58:18.849Z,10.90
2018-12-09T01:00:46.999Z,7.73
2018-12-09T01:03:15.115Z,5.97
2018-12-09T01:05:43.300Z,9.43
2018-12-09T01:08:11.719Z,6.27
2018-12-09T01:10:40.151Z,5.70
2018-12-09T01:13:08.260Z,11.90
2018-12-09T01:15:36.399Z,10.87
2018-12-09T01:18:04.580Z,7.17
2018-12-09T01:20:32.711Z,4.10
2018-12-09T01:23:00.825Z,6.70
2018-12-09T01:25:28.920Z,8.10
2018-12-09T01:27:57.014Z,9.20
2018-12-09T01:30:25.115Z,10.40
2018-12-09T01:32:53.732Z,8.63
2018-12-09T01:35:22.137Z,7.97
2018-12-09T01:37:50.247Z,14.73
2018-12-09T01:40:18.401Z,8.47
2018-12-09T01:42:46.543Z,8.70
2018-12-09T01:45:14.678Z,10.23
2018-12-09T01:47:42.839Z,6.73
2018-12-09T01:50:11.119Z,7.63
2018-12-09T01:52:39.256Z,14.13
2018-12-09T01:55:07.491Z,6.80
2018-12-09T02:00:32.743Z,7.63
2018-12-09T02:03:00.842Z,8.83
2018-12-09T02:05:28.928Z,8.33
2018-12-09T02:07:57.045Z,9.57
2018-12-09T02:10:25.204Z,10.03
2018-12-09T02:12:53.323Z,9.57
2018-12-09T02:15:21.506Z,8.87
2018-12-09T02:17:49.685Z,9.93
2018-12-09T02:20:17.844Z,10.00
2018-12-09T02:22:45.916Z,10.43
2018-12-09T02:25:14.235Z,12.40
2018-12-09T02:27:42.560Z,11.27
2018-12-09T02:30:10.811Z,10.10
2018-12-09T02:32:38.984Z,10.63
2018-12-09T02:35:09.613Z,10.17
2018-12-09T02:37:37.760Z,10.00
2018-12-09T02:40:05.872Z,13.80
2018-12-09T02:42:34.105Z,10.20
2018-12-09T02:45:02.295Z,12.17
2018-12-09T02:47:30.400Z,14.97
2018-12-09T02:49:58.810Z,12.17
2018-12-09T02:52:26.959Z,13.80
2018-12-09T02:54:55.475Z,14.90
2018-12-09T02:57:23.646Z,13.17
2018-12-09T02:59:51.823Z,19.77
2018-12-09T03:02:20.032Z,12.03
2018-12-09T03:04:48.178Z,13.20
2018-12-09T03:07:16.263Z,9.17
2018-12-09T03:09:44.428Z,16.23
2018-12-09T03:12:13.036Z,11.73
2018-12-09T03:14:41.146Z,9.87
2018-12-09T03:17:09.265Z,10.60
2018-12-09T03:19:38.489Z,12.93
2018-12-09T03:22:06.714Z,18.77
2018-12-09T03:24:34.815Z,18.27
2018-12-09T03:27:02.972Z,22.67
2018-12-09T03:29:31.156Z,17.70
2018-12-09T03:31:59.398Z,13.40
2018-12-09T03:34:27.589Z,13.93
2018-12-09T03:36:55.692Z,12.90
2018-12-09T03:39:23.906Z,12.40
2018-12-09T03:41:52.086Z,11.57
2018-12-09T03:44:20.176Z,11.77
2018-12-09T03:46:48.792Z,12.50
2018-12-09T03:49:16.920Z,13.37
2018-12-09T03:51:45.062Z,19.63
2018-12-09T03:54:13.148Z,11.40
2018-12-09T03:56:41.241Z,7.57
2018-12-09T03:59:09.729Z,7.10
2018-12-09T04:01:37.829Z,7.33
2018-12-09T04:04:06.052Z,12.43
2018-12-09T04:06:34.251Z,12.93
2018-12-09T04:09:02.377Z,9.37
2018-12-09T04:11:30.510Z,11.93
2018-12-09T04:13:58.593Z,8.37
2018-12-09T04:16:26.760Z,9.53
2018-12-09T04:18:54.880Z,12.27
2018-12-09T04:21:23.020Z,10.43
2018-12-09T04:23:51.111Z,7.17
2018-12-09T04:26:19.376Z,11.63
2018-12-09T04:28:47.525Z,11.53
2018-12-09T04:31:15.607Z,10.07
2018-12-09T04:33:43.711Z,9.17
2018-12-09T04:36:11.866Z,8.73
2018-12-09T04:38:40.081Z,11.03
2018-12-09T04:41:08.191Z,10.97
2018-12-09T04:43:37.085Z,12.03
2018-12-09T04:46:05.808Z,5.77
2018-12-09T04:48:33.957Z,9.37
2018-12-09T04:51:02.076Z,12.70
2018-12-09T04:53:30.215Z,9.13
2018-12-09T04:55:58.519Z,11.93
2018-12-09T04:58:26.698Z,8.10
2018-12-09T05:00:55.250Z,10.90
2018-12-09T05:03:23.471Z,9.20
2018-12-09T05:05:51.643Z,7.60
2018-12-09T05:08:19.856Z,7.30
2018-12-09T05:10:48.042Z,5.83
2018-12-09T05:13:16.206Z,12.70
2018-12-09T05:15:44.356Z,9.57
2018-12-09T05:18:12.470Z,8.23
2018-12-09T05:20:40.681Z,7.03
2018-12-09T05:23:08.816Z,9.17
2018-12-09T05:25:36.905Z,8.83
2018-12-09T05:28:05.036Z,9.87
2018-12-09T05:30:33.288Z,12.00
2018-12-09T05:33:01.479Z,9.00
2018-12-09T05:35:29.698Z,15.77
2018-12-09T05:37:57.807Z,13.10
2018-12-09T05:40:26.046Z,8.60
2018-12-09T05:42:54.229Z,14.30
2018-12-09T05:45:22.408Z,7.47
2018-12-09T05:47:51.844Z,10.87
2018-12-09T05:50:20.140Z,9.00
2018-12-09T05:52:48.346Z,7.73
2018-12-09T05:55:16.398Z,7.50
2018-12-09T05:57:44.923Z,12.17
2018-12-09T06:00:13.116Z,14.13
2018-12-09T06:02:48.975Z,7.83
2018-12-09T06:05:17.084Z,9.03
2018-12-09T06:07:45.330Z,10.70
2018-12-09T06:10:13.504Z,7.13
2018-12-09T06:12:41.742Z,12.17
2018-12-09T06:15:10.068Z,5.20
2018-12-09T06:17:38.193Z,8.27
2018-12-09T06:20:06.316Z,6.83
2018-12-09T06:22:34.454Z,7.20
2018-12-09T06:25:02.623Z,10.73
2018-12-09T06:27:30.801Z,8.27
2018-12-09T06:29:58.929Z,9.23
2018-12-09T06:32:27.400Z,13.03
2018-12-09T06:34:55.559Z,9.77
2018-12-09T06:37:23.689Z,10.20
2018-12-09T06:39:51.794Z,10.57
2018-12-09T06:42:19.904Z,15.23
2018-12-09T06:44:48.229Z,13.93
2018-12-09T06:47:16.355Z,8.77
2018-12-09T06:49:44.611Z,10.00
2018-12-09T06:52:14.038Z,10.17
2018-12-09T06:54:42.316Z,13.90
2018-12-09T06:57:10.753Z,8.10
2018-12-09T06:59:38.939Z,9.23
2018-12-09T07:02:07.106Z,12.30
2018-12-09T07:04:35.203Z,4.93
2018-12-09T07:07:03.377Z,10.03
2018-12-09T07:09:31.529Z,10.00
2018-12-09T07:11:59.694Z,9.17
2018-12-09T07:14:27.834Z,12.73
2018-12-09T07:16:55.998Z,8.13
2018-12-09T07:19:24.108Z,9.97
2018-12-09T07:21:52.187Z,8.13
2018-12-09T07:24:20.318Z,11.60
2018-12-09T07:26:48.471Z,14.23
2018-12-09T07:29:16.627Z,12.13
2018-12-09T07:31:44.753Z,11.03
2018-12-09T07:34:13.804Z,12.93
2018-12-09T07:36:41.885Z,15.33
2018-12-09T07:39:10.078Z,9.87
2018-12-09T07:41:38.279Z,15.37
2018-12-09T07:44:06.443Z,10.87
2018-12-09T07:46:34.559Z,11.03
2018-12-09T07:49:02.684Z,8.40
2018-12-09T07:51:30.819Z,7.60
2018-12-09T07:53:59.148Z,11.53
2018-12-09T07:56:27.336Z,11.07
2018-12-09T07:58:55.432Z,9.00
2018-12-09T08:01:23.577Z,15.90
2018-12-09T08:03:51.726Z,16.20
2018-12-09T08:06:19.879Z,12.63
2018-12-09T08:08:47.996Z,10.30
2018-12-09T08:11:16.137Z,8.43
2018-12-09T08:13:44.194Z,9.47
2018-12-09T08:16:13.104Z,8.23
2018-12-09T08:18:41.255Z,10.80
2018-12-09T08:21:09.379Z,10.97
2018-12-09T08:23:37.472Z,7.30
2018-12-09T08:26:05.627Z,10.40
2018-12-09T08:28:33.775Z,7.97
2018-12-09T08:31:01.906Z,8.43
2018-12-09T08:33:30.048Z,12.23
2018-12-09T08:35:58.143Z,6.97
2018-12-09T08:38:26.228Z,9.93
2018-12-09T08:40:54.387Z,7.30
2018-12-09T08:43:22.461Z,11.93
2018-12-09T08:45:50.550Z,7.27
2018-12-09T08:48:18.698Z,8.67
2018-12-09T08:50:46.844Z,14.63
2018-12-09T08:53:14.931Z,9.93
2018-12-09T08:55:43.125Z,12.97
2018-12-09T08:58:11.244Z,8.33
2018-12-09T09:00:39.376Z,8.27
2018-12-09T09:03:07.507Z,14.33
2018-12-09T09:05:35.615Z,6.40
2018-12-09T09:08:03.796Z,10.87
2018-12-09T09:10:31.919Z,8.67
2018-12-09T09:12:59.986Z,9.97
2018-12-09T09:15:28.138Z,9.80
2018-12-09T09:17:56.229Z,7.50
2018-12-09T09:20:24.387Z,8.73
2018-12-09T09:22:52.585Z,8.33
2018-12-09T09:25:20.870Z,7.43
2018-12-09T09:27:49.085Z,9.33
2018-12-09T09:30:17.225Z,7.60
2018-12-09T09:32:45.436Z,3.80
2018-12-09T09:35:13.519Z,5.37
2018-12-09T09:37:41.616Z,6.97
2018-12-09T09:40:09.783Z,3.77
2018-12-09T09:42:37.923Z,6.80
2018-12-09T09:45:06.378Z,6.03
2018-12-09T09:47:34.582Z,6.80
2018-12-09T09:50:02.743Z,6.80
2018-12-09T09:52:30.966Z,8.97
2018-12-09T09:54:59.036Z,3.63
2018-12-09T09:57:27.138Z,3.67
2018-12-09T09:59:55.316Z,5.57
2018-12-09T10:02:24.603Z,16.63
2018-12-09T10:04:52.720Z,6.50
2018-12-09T10:07:20.863Z,10.67
2018-12-09T10:09:48.957Z,10.30
2018-12-09T10:12:17.159Z,8.47
2018-12-09T10:14:45.324Z,7.93
2018-12-09T10:17:13.440Z,7.87
2018-12-09T10:19:41.600Z,8.40
2018-12-09T10:22:09.727Z,14.80
2018-12-09T10:24:37.827Z,8.80
2018-12-09T10:27:05.936Z,10.07
2018-12-09T10:29:34.042Z,7.67
2018-12-09T10:32:02.115Z,11.50
2018-12-09T10:34:30.238Z,9.17
2018-12-09T10:36:58.337Z,13.57
2018-12-09T10:39:26.501Z,10.00
2018-12-09T10:41:54.661Z,11.93
2018-12-09T10:44:22.748Z,8.07
2018-12-09T10:46:50.839Z,12.90
2018-12-09T10:49:18.944Z,10.33
2018-12-09T10:51:47.035Z,8.47
2018-12-09T10:54:15.148Z,7.37
2018-12-09T10:56:43.270Z,9.17
2018-12-09T10:59:11.403Z,11.60
2018-12-09T11:01:39.625Z,9.97
2018-12-09T11:04:07.801Z,13.10
2018-12-09T11:06:35.924Z,9.63
2018-12-09T11:09:05.657Z,11.27
2018-12-09T11:11:33.779Z,5.80
2018-12-09T11:14:01.971Z,11.93
2018-12-09T11:16:30.067Z,13.87
2018-12-09T11:18:58.259Z,5.00
2018-12-09T11:21:30.489Z,9.27
2018-12-09T11:23:56.659Z,9.07
2018-12-09T11:26:24.868Z,6.00
2018-12-09T11:28:53.048Z,8.80
2018-12-09T11:31:21.196Z,12.40
2018-12-09T11:33:49.482Z,8.43
2018-12-09T11:36:17.527Z,8.17
2018-12-09T11:38:45.666Z,6.73
2018-12-09T11:41:13.807Z,3.90
2018-12-09T11:43:41.938Z,1.70
2018-12-09T11:46:10.072Z,2.43
2018-12-09T11:48:38.237Z,3.87
2018-12-09T11:51:06.358Z,3.13
2018-12-09T11:53:34.530Z,5.10
2018-12-09T11:56:02.636Z,0.97
2018-12-09T11:58:30.764Z,2.30
2018-12-09T12:00:58.948Z,2.40
2018-12-09T12:03:27.032Z,4.73
2018-12-09T12:05:55.125Z,5.23
2018-12-09T12:08:24.424Z,4.47
2018-12-09T12:10:52.716Z,4.40
2018-12-09T12:13:20.825Z,4.27
2018-12-09T12:15:48.976Z,6.17
2018-12-09T12:18:17.070Z,3.27
2018-12-09T12:20:45.191Z,7.47
2018-12-09T12:23:13.277Z,4.80
2018-12-09T12:25:41.384Z,6.20
2018-12-09T12:28:09.475Z,4.63
2018-12-09T12:30:37.620Z,7.37
2018-12-09T12:33:05.696Z,8.83
2018-12-09T12:35:33.801Z,9.50
2018-12-09T12:38:01.991Z,4.17
2018-12-09T12:40:30.128Z,6.47
2018-12-09T12:42:58.276Z,7.97
2018-12-09T12:45:26.460Z,7.47
2018-12-09T12:47:54.588Z,10.33
2018-12-09T12:50:22.741Z,4.23
2018-12-09T12:52:50.888Z,11.60
2018-12-09T12:55:18.999Z,11.17
2018-12-09T12:57:47.150Z,10.83
2018-12-09T13:00:15.643Z,11.97
2018-12-09T13:02:43.763Z,10.23
2018-12-09T13:05:12.017Z,10.83
2018-12-09T13:07:40.152Z,9.07
2018-12-09T13:10:08.352Z,15.33
2018-12-09T13:12:36.514Z,17.07
2018-12-09T13:15:06.531Z,11.33
2018-12-09T13:17:34.721Z,15.23
2018-12-09T13:20:03.956Z,9.30
2018-12-09T13:22:32.134Z,13.57
2018-12-09T13:25:00.247Z,8.70
2018-12-09T13:27:28.463Z,10.53
2018-12-09T13:29:56.642Z,9.27
2018-12-09T13:32:24.823Z,6.93
2018-12-09T13:34:52.983Z,10.17
2018-12-09T13:37:21.094Z,8.20
2018-12-09T13:39:49.217Z,6.13
2018-12-09T13:42:17.321Z,9.43
2018-12-09T13:44:45.410Z,8.50
2018-12-09T13:47:13.604Z,9.80
2018-12-09T13:49:41.708Z,8.10
2018-12-09T13:52:09.857Z,8.73
2018-12-09T13:54:38.858Z,10.17
2018-12-09T13:57:07.058Z,13.43
2018-12-09T13:59:35.339Z,13.13
2018-12-09T14:02:03.535Z,8.97
2018-12-09T14:04:31.649Z,7.17
2018-12-09T14:06:59.779Z,11.07
2018-12-09T14:09:27.883Z,9.63
2018-12-09T14:11:55.969Z,9.23
2018-12-09T14:14:24.146Z,19.13
2018-12-09T14:16:52.391Z,15.97
2018-12-09T14:19:20.536Z,9.37
2018-12-09T14:21:48.668Z,9.33
2018-12-09T14:24:16.778Z,9.33
2018-12-09T14:26:44.912Z,15.93
2018-12-09T14:29:13.100Z,12.30
2018-12-09T14:31:41.509Z,10.00
2018-12-09T14:34:09.622Z,13.57
2018-12-09T14:36:38.932Z,18.43
2018-12-09T14:39:07.552Z,11.50
2018-12-09T14:41:35.698Z,13.80
2018-12-09T14:44:03.875Z,13.67
2018-12-09T14:46:32.047Z,20.37
2018-12-09T14:49:00.111Z,8.47
2018-12-09T14:51:28.284Z,12.67
2018-12-09T14:53:56.455Z,13.07
2018-12-09T14:56:24.610Z,19.53
2018-12-09T14:58:53.214Z,16.23
2018-12-09T15:01:21.370Z,18.00
2018-12-09T15:03:49.553Z,14.93
2018-12-09T15:06:17.735Z,18.73
2018-12-09T15:08:45.895Z,21.23
2018-12-09T15:11:13.996Z,14.37
2018-12-09T15:13:42.136Z,11.20
2018-12-09T15:16:10.248Z,14.77
2018-12-09T15:18:38.473Z,17.23
2018-12-09T15:21:06.577Z,14.40
2018-12-09T15:23:34.738Z,20.97
2018-12-09T15:26:02.888Z,18.17
2018-12-09T15:28:30.994Z,22.03
2018-12-09T15:30:59.089Z,14.87
2018-12-09T15:33:27.288Z,18.10
2018-12-09T15:35:55.380Z,15.90
2018-12-09T15:38:23.671Z,19.20
2018-12-09T15:40:51.786Z,15.07
2018-12-09T15:43:19.915Z,21.53
2018-12-09T15:45:48.033Z,17.70
2018-12-09T15:48:16.124Z,20.17
2018-12-09T15:50:44.269Z,13.50
2018-12-09T15:53:12.429Z,16.00
2018-12-09T15:55:40.507Z,21.10
2018-12-09T15:58:08.631Z,21.00
2018-12-09T16:00:38.694Z,18.70
2018-12-09T16:03:06.970Z,15.00
2018-12-09T16:05:35.144Z,17.07
2018-12-09T16:08:03.283Z,18.50
2018-12-09T16:10:31.383Z,14.93
2018-12-09T16:12:59.570Z,22.53
2018-12-09T16:15:27.627Z,27.37
2018-12-09T16:17:55.917Z,16.30
2018-12-09T16:20:24.009Z,18.33
2018-12-09T16:22:52.122Z,15.73
2018-12-09T16:25:20.323Z,20.47
2018-12-09T16:27:48.525Z,21.53
2018-12-09T16:30:16.649Z,16.00
2018-12-09T16:32:44.764Z,12.67
2018-12-09T16:35:12.933Z,20.07
2018-12-09T16:37:41.006Z,28.73
2018-12-09T16:40:09.151Z,19.27
2018-12-09T16:42:37.254Z,21.63
2018-12-09T16:45:05.771Z,21.65
2018-12-09T16:47:33.862Z,27.20
2018-12-09T16:50:01.972Z,20.77
2018-12-09T16:52:30.056Z,24.23
2018-12-09T16:54:58.156Z,22.00
2018-12-09T16:57:26.291Z,20.27
2018-12-09T16:59:54.431Z,21.00
2018-12-09T17:02:22.543Z,22.70
2018-12-09T17:04:50.648Z,24.47
2018-12-09T17:07:18.751Z,20.37
2018-12-09T17:09:46.877Z,20.10
2018-12-09T17:12:15.001Z,25.57
2018-12-09T17:14:43.105Z,27.47
2018-12-09T17:17:11.208Z,24.30
2018-12-09T17:19:39.311Z,21.13
2018-12-09T17:22:07.447Z,24.17
2018-12-09T17:24:35.699Z,25.13
2018-12-09T17:27:03.819Z,20.97
2018-12-09T17:29:31.931Z,25.07
2018-12-09T17:32:00.041Z,17.13
2018-12-09T17:34:28.166Z,28.10
2018-12-09T17:36:56.260Z,14.23
2018-12-09T17:39:24.458Z,32.63
2018-12-09T17:41:52.564Z,19.17
2018-12-09T17:44:20.684Z,18.13
2018-12-09T17:46:48.823Z,20.57
2018-12-09T17:49:16.951Z,22.83
2018-12-09T17:51:45.109Z,20.17
2018-12-09T17:54:13.208Z,18.17
2018-12-09T17:56:41.317Z,17.93
2018-12-09T17:59:09.430Z,20.33
2018-12-09T18:01:37.562Z,18.27
2018-12-09T18:04:05.736Z,19.97
2018-12-09T18:06:33.853Z,13.23
2018-12-09T18:09:02.036Z,18.27
2018-12-09T18:11:30.151Z,21.00
2018-12-09T18:13:58.267Z,18.27
2018-12-09T18:16:26.385Z,26.07
2018-12-09T18:18:54.491Z,27.20
2018-12-09T18:21:22.684Z,18.80
2018-12-09T18:23:52.591Z,23.80
2018-12-09T18:26:20.961Z,19.63
2018-12-09T18:28:49.182Z,17.30
2018-12-09T18:31:17.383Z,28.23
2018-12-09T18:33:45.519Z,25.03
2018-12-09T18:36:13.671Z,19.93
2018-12-09T18:38:41.837Z,26.43
2018-12-09T18:41:10.022Z,23.83
2018-12-09T18:43:38.116Z,22.60
2018-12-09T18:46:06.223Z,21.30
2018-12-09T18:48:34.315Z,25.83
2018-12-09T18:51:03.510Z,22.03
2018-12-09T18:53:31.713Z,13.63
2018-12-09T18:56:00.027Z,19.53
2018-12-09T18:58:28.180Z,20.07
2018-12-09T19:00:56.315Z,20.13
2018-12-09T19:03:24.483Z,17.87
2018-12-09T19:05:52.620Z,17.17
2018-12-09T19:08:20.891Z,15.57
2018-12-09T19:10:49.103Z,17.13
2018-12-09T19:13:17.230Z,13.47
2018-12-09T19:15:46.944Z,12.17
2018-12-09T19:18:15.244Z,16.13
2018-12-09T19:20:43.371Z,18.90
2018-12-09T19:23:11.534Z,17.77
2018-12-09T19:25:39.588Z,20.20
2018-12-09T19:28:07.724Z,17.47
2018-12-09T19:30:35.808Z,14.90
2018-12-09T19:33:03.949Z,16.17
2018-12-09T19:35:32.051Z,18.87
2018-12-09T19:38:00.161Z,15.23
2018-12-09T19:40:28.302Z,17.40
2018-12-09T19:42:56.409Z,13.97
2018-12-09T19:45:24.581Z,20.30
2018-12-09T19:47:52.729Z,14.77
2018-12-09T19:50:20.938Z,17.03
2018-12-09T19:52:49.073Z,21.43
2018-12-09T19:55:17.226Z,14.77
2018-12-09T19:57:45.440Z,23.33
2018-12-09T20:00:13.574Z,16.07
2018-12-09T20:02:41.756Z,22.30
2018-12-09T20:05:09.881Z,21.50
2018-12-09T20:07:38.055Z,18.37
2018-12-09T20:10:06.799Z,17.93
2018-12-09T20:12:34.884Z,16.07
2018-12-09T20:15:03.142Z,26.83
2018-12-09T20:17:31.309Z,20.80
2018-12-09T20:19:59.522Z,23.63
2018-12-09T20:22:27.640Z,18.17
2018-12-09T20:24:55.795Z,16.50
2018-12-09T20:27:23.935Z,17.50
2018-12-09T20:29:52.039Z,20.07
2018-12-09T20:32:20.159Z,17.30
2018-12-09T20:34:48.339Z,16.80
2018-12-09T20:37:16.488Z,21.23
2018-12-09T20:39:44.692Z,9.87
2018-12-09T20:42:12.811Z,24.50
2018-12-09T20:44:40.944Z,17.43
2018-12-09T20:47:09.095Z,13.60
2018-12-09T20:49:37.270Z,18.53
2018-12-09T20:52:05.373Z,18.83
2018-12-09T20:54:33.455Z,19.57
2018-12-09T20:57:01.551Z,23.00
2018-12-09T20:59:29.672Z,16.63
2018-12-09T21:01:57.775Z,17.87
2018-12-09T21:04:25.876Z,12.83
2018-12-09T21:06:54.016Z,15.43
2018-12-09T21:09:22.147Z,18.77
2018-12-09T21:11:50.252Z,16.13
2018-12-09T21:14:18.406Z,12.37
2018-12-09T21:16:46.512Z,11.67
2018-12-09T21:19:14.747Z,12.63
2018-12-09T21:21:43.601Z,15.67
2018-12-09T21:24:11.703Z,15.97
2018-12-09T21:26:39.844Z,13.93
2018-12-09T21:29:07.994Z,9.87
2018-12-09T21:31:36.129Z,15.07
2018-12-09T21:34:04.250Z,11.13
2018-12-09T21:36:32.395Z,18.83
2018-12-09T21:39:00.572Z,18.10
2018-12-09T21:41:28.733Z,18.97
2018-12-09T21:43:56.968Z,13.67
2018-12-09T21:46:25.139Z,13.90
2018-12-09T21:48:53.384Z,15.07
2018-12-09T21:51:21.524Z,15.17
2018-12-09T21:53:49.611Z,13.80
2018-12-09T21:56:17.757Z,15.77
2018-12-09T21:58:45.885Z,18.63
2018-12-09T22:01:14.147Z,15.83
2018-12-09T22:03:42.209Z,20.77
2018-12-09T22:06:10.320Z,17.97
2018-12-09T22:08:38.421Z,23.43
2018-12-09T22:11:06.546Z,16.63
2018-12-09T22:13:34.637Z,20.87
2018-12-09T22:16:02.779Z,18.27
2018-12-09T22:18:30.867Z,17.37
2018-12-09T22:20:59.935Z,12.40
2018-12-09T22:23:28.134Z,20.50
2018-12-09T22:25:56.264Z,14.33
2018-12-09T22:28:24.371Z,18.97
2018-12-09T22:30:52.496Z,18.07
2018-12-09T22:33:20.607Z,17.73
2018-12-09T22:35:48.711Z,11.70
2018-12-09T22:38:16.849Z,20.63
2018-12-09T22:40:45.015Z,18.33
2018-12-09T22:43:13.254Z,12.70
2018-12-09T22:45:41.369Z,16.67
2018-12-09T22:48:09.512Z,17.40
2018-12-09T22:50:37.651Z,15.30
2018-12-09T22:53:05.779Z,18.37
2018-12-09T22:55:33.877Z,15.00
2018-12-09T22:58:02.120Z,15.17
2018-12-09T23:00:30.328Z,19.97
2018-12-09T23:03:02.788Z,19.23
2018-12-09T23:05:30.978Z,16.87
2018-12-09T23:07:59.158Z,11.60
2018-12-09T23:10:27.289Z,15.37
2018-12-09T23:12:55.403Z,15.83
2018-12-09T23:15:23.581Z,15.37
2018-12-09T23:17:51.718Z,15.13
2018-12-09T23:20:19.907Z,15.90
2018-12-09T23:22:48.073Z,18.70
2018-12-09T23:25:16.159Z,15.00
2018-12-09T23:27:44.315Z,10.03
2018-12-09T23:30:12.450Z,9.00
2018-12-09T23:32:40.542Z,15.57
2018-12-09T23:35:08.715Z,16.07
2018-12-09T23:37:36.927Z,13.70
2018-12-09T23:40:05.532Z,17.17
2018-12-09T23:42:33.631Z,13.37
2018-12-09T23:45:01.734Z,15.40
2018-12-09T23:47:29.903Z,10.83
2018-12-09T23:49:58.059Z,8.33
2018-12-09T23:52:26.182Z,10.70
2018-12-09T23:54:54.302Z,13.10
2018-12-09T23:57:22.403Z,11.23
2018-12-09T23:59:50.565Z,10.70
